Malabo, Equatorial Guinea
Current Conditions -  °F | °C
As of 7:00 AM on Monday 26 Jan 2015 (Local Time) from FKKD Reporting Station
Haze Haze  
Wind Chill: 77°   Ceiling: Unl
Heat Index: 78°   Visibility: 2.5mi
Dew Point: 77°   Wind: 0mph
Humidity: 100%   Direction: NA
Pressure: 29.85"   Gusts: NA
Location:  3.74°N, 8.79°E
Report Text: FKKD 260600Z 00000KT 4000 BR SCT016 FEW020CB 25/25 Q1011 TEMPO2500 BR
Loading
Personal Weather Stations






























Interactive Weather Map New forecast layout! Learn more

10-Day Weather Forecast

Advertisements
Track Severe Weather on mobile